Time;durP1;ratioP1;P1;durP2;ratioP2;P2;SDS_P1;SDS_P2;PMS_P1;PMS_P2;Temp;Humidity;BMP_temperature;BMP_pressure;BME280_temperature;BME280_humidity;BME280_pressure;Samples;Min_cycle;Max_cycle;Signal;HPM_P1;HPM_P2
2021/03/18 00:02:20;;;;;;;22.00;13.47;;;;;;;0.96;100.00;99024.77;3755221;77;43702;-19
2021/03/18 00:07:27;;;;;;;22.07;12.07;;;;;;;0.88;100.00;99025.20;3685468;79;44015;-18
2021/03/18 00:12:33;;;;;;;19.17;11.20;;;;;;;0.82;100.00;99024.22;3747786;76;43457;-18
2021/03/18 00:17:40;;;;;;;16.37;10.07;;;;;;;0.77;100.00;99021.80;3759598;77;43025;-18
2021/03/18 00:22:47;;;;;;;17.83;9.63;;;;;;;0.68;100.00;99038.22;3688331;79;43669;-18
2021/03/18 00:27:53;;;;;;;13.97;9.10;;;;;;;0.66;100.00;99034.78;3763170;77;43681;-18
2021/03/18 00:32:59;;;;;;;14.80;9.27;;;;;;;0.66;100.00;99032.13;3781177;77;42786;-18
2021/03/18 00:38:06;;;;;;;14.13;9.07;;;;;;;0.64;100.00;99031.39;3774214;77;44050;-18
2021/03/18 00:43:13;;;;;;;14.30;8.93;;;;;;;0.65;100.00;99023.82;3772917;77;43166;-18
2021/03/18 00:48:22;;;;;;;13.57;8.47;;;;;;;0.58;100.00;99029.44;3707609;80;44063;-18
2021/03/18 00:53:31;;;;;;;13.23;8.30;;;;;;;0.57;100.00;99029.05;3707111;78;43718;-18
2021/03/18 00:58:37;;;;;;;12.97;8.27;;;;;;;0.50;100.00;99025.03;3791094;77;43680;-18
2021/03/18 01:03:44;;;;;;;12.43;8.00;;;;;;;0.47;100.00;99019.05;3786833;77;44706;-18
2021/03/18 01:08:51;;;;;;;14.33;8.57;;;;;;;0.43;100.00;99019.66;3793730;77;43396;-18
2021/03/18 01:13:59;;;;;;;15.50;8.67;;;;;;;0.48;100.00;99023.38;3777929;77;44101;-19
2021/03/18 01:19:07;;;;;;;15.23;8.90;;;;;;;0.47;100.00;99023.86;3780977;77;43270;-18
2021/03/18 01:24:15;;;;;;;15.37;9.33;;;;;;;0.51;100.00;99013.49;3771066;77;42947;-18
2021/03/18 01:29:21;;;;;;;14.43;8.23;;;;;;;0.40;100.00;99007.43;3687198;79;43709;-18
2021/03/18 01:34:27;;;;;;;13.80;8.67;;;;;;;0.34;100.00;99004.25;3751390;77;43383;-18
2021/03/18 01:39:34;;;;;;;13.77;8.23;;;;;;;0.32;100.00;99001.69;3771014;77;43023;-18
2021/03/18 01:44:41;;;;;;;15.40;8.60;;;;;;;0.21;100.00;98996.11;3748247;77;44023;-18
2021/03/18 01:49:47;;;;;;;14.77;8.97;;;;;;;0.20;100.00;98997.05;3755681;77;44054;-18
2021/03/18 01:54:53;;;;;;;15.27;8.67;;;;;;;0.07;100.00;99000.79;3745490;77;43427;-18
2021/03/18 01:59:59;;;;;;;18.23;8.73;;;;;;;0.05;100.00;99006.66;3687719;80;43443;-18
2021/03/18 02:05:08;;;;;;;16.77;9.33;;;;;;;-0.06;100.00;99002.75;3748658;77;43049;-18
2021/03/18 02:10:14;;;;;;;15.33;8.63;;;;;;;-0.02;100.00;99001.67;3745177;77;43414;-18
2021/03/18 02:15:23;;;;;;;13.83;8.00;;;;;;;0.06;100.00;98996.46;3754363;77;43348;-18
2021/03/18 02:21:01;;;;;;;12.43;8.33;;;;;;;0.10;100.00;98992.23;3687930;79;43681;-18
2021/03/18 02:26:17;;;;;;;14.30;8.40;;;;;;;0.12;100.00;98997.44;3658050;79;44081;-19
2021/03/18 02:31:28;;;;;;;12.10;7.73;;;;;;;0.11;100.00;98990.44;3752973;77;42764;-19
2021/03/18 02:36:43;;;;;;;12.30;7.63;;;;;;;0.12;100.00;98989.50;3741899;77;44044;-19
2021/03/18 02:41:52;;;;;;;12.67;7.67;;;;;;;0.13;100.00;98993.86;3689248;79;44011;-19
2021/03/18 02:47:02;;;;;;;12.50;8.00;;;;;;;0.13;100.00;98995.19;3754046;77;44903;-19
2021/03/18 02:52:10;;;;;;;11.87;7.37;;;;;;;0.07;100.00;98992.39;3687306;79;44813;-18
2021/03/18 02:57:18;;;;;;;13.27;7.83;;;;;;;0.02;100.00;98990.92;3744261;77;43685;-19
2021/03/18 03:02:26;;;;;;;13.33;7.93;;;;;;;-0.05;100.00;98987.73;3762897;77;44069;-19
2021/03/18 03:07:34;;;;;;;12.93;8.10;;;;;;;-0.07;100.00;98986.95;3757351;77;43025;-19
2021/03/18 03:12:41;;;;;;;14.20;8.13;;;;;;;-0.07;100.00;98985.18;3765147;77;44169;-19
2021/03/18 03:17:48;;;;;;;12.33;8.00;;;;;;;-0.16;100.00;98986.50;3753199;77;44080;-19
2021/03/18 03:22:57;;;;;;;10.43;7.30;;;;;;;-0.21;100.00;98988.52;3768209;77;43669;-18
2021/03/18 03:28:05;;;;;;;11.97;6.77;;;;;;;-0.24;100.00;98992.67;3776582;77;44200;-19
2021/03/18 03:33:11;;;;;;;11.83;7.50;;;;;;;-0.26;100.00;98981.75;3794839;77;43463;-19
2021/03/18 03:38:18;;;;;;;13.53;7.70;;;;;;;-0.36;100.00;98986.20;3747759;78;43709;-19
2021/03/18 03:43:24;;;;;;;15.73;8.90;;;;;;;-0.48;100.00;98974.91;3683744;79;42868;-19
2021/03/18 03:48:33;;;;;;;14.17;8.40;;;;;;;-0.40;100.00;98979.34;3786000;77;44101;-18
2021/03/18 03:53:43;;;;;;;15.73;8.43;;;;;;;-0.45;100.00;98969.47;3787816;77;44047;-19
2021/03/18 03:58:53;;;;;;;12.97;8.30;;;;;;;-0.48;100.00;98979.75;3724348;78;44053;-18
2021/03/18 04:04:04;;;;;;;16.00;9.47;;;;;;;-0.46;100.00;98982.31;3678067;79;43377;-18
2021/03/18 04:09:13;;;;;;;16.23;9.13;;;;;;;-0.47;100.00;98983.24;3730874;78;43509;-17
2021/03/18 04:14:22;;;;;;;15.27;8.90;;;;;;;-0.49;100.00;98970.09;3694118;79;44629;-18
2021/03/18 04:19:29;;;;;;;15.57;9.17;;;;;;;-0.58;100.00;98969.70;3797126;77;44087;-18
2021/03/18 04:24:36;;;;;;;13.20;8.57;;;;;;;-0.65;100.00;98971.79;3745996;78;43325;-17
2021/03/18 04:29:43;;;;;;;15.50;8.50;;;;;;;-0.63;100.00;98976.55;3733657;77;44056;-18
2021/03/18 04:34:52;;;;;;;14.53;9.23;;;;;;;-0.62;100.00;98981.75;3757176;77;44106;-18
2021/03/18 04:39:59;;;;;;;19.80;9.37;;;;;;;-0.65;100.00;98983.70;3741437;77;44077;-18
2021/03/18 04:45:08;;;;;;;15.23;9.03;;;;;;;-0.65;100.00;98982.38;3743871;77;43711;-18
2021/03/18 04:50:17;;;;;;;18.93;10.10;;;;;;;-0.68;100.00;98980.75;3738386;77;43502;-18
2021/03/18 04:55:23;;;;;;;17.73;9.53;;;;;;;-0.69;100.00;98979.03;3752099;77;43722;-18
2021/03/18 05:00:30;;;;;;;18.07;9.83;;;;;;;-0.71;100.00;98979.56;3741690;77;44037;-18
2021/03/18 05:05:39;;;;;;;18.40;10.43;;;;;;;-0.73;100.00;98980.59;3755264;77;44048;-18
2021/03/18 05:10:46;;;;;;;20.63;10.60;;;;;;;-0.73;100.00;98985.40;3681827;80;44076;-18
2021/03/18 05:15:54;;;;;;;18.90;11.23;;;;;;;-0.68;100.00;98981.20;3715417;79;43707;-18
2021/03/18 05:21:01;;;;;;;21.40;11.30;;;;;;;-0.67;100.00;98980.27;3768181;77;44087;-18
2021/03/18 05:26:07;;;;;;;18.70;10.77;;;;;;;-0.67;100.00;98986.44;3753145;77;44061;-18
2021/03/18 05:31:13;;;;;;;23.20;12.20;;;;;;;-0.64;100.00;98982.77;3746786;77;43381;-18
2021/03/18 05:36:21;;;;;;;21.73;11.70;;;;;;;-0.68;100.00;98978.10;3722888;78;43286;-18
2021/03/18 05:41:28;;;;;;;22.63;11.27;;;;;;;-0.66;100.00;98975.37;3758966;77;43421;-18
2021/03/18 05:46:34;;;;;;;20.83;11.80;;;;;;;-0.66;100.00;98969.63;3752141;77;43673;-18
2021/03/18 05:51:44;;;;;;;20.03;11.40;;;;;;;-0.67;100.00;98974.52;3769580;77;44197;-18
2021/03/18 05:56:50;;;;;;;22.03;12.13;;;;;;;-0.65;100.00;98972.63;3751532;77;43351;-18
2021/03/18 06:01:57;;;;;;;25.17;12.63;;;;;;;-0.58;100.00;98973.66;3762744;77;44064;-18
2021/03/18 06:07:04;;;;;;;21.50;11.93;;;;;;;-0.52;100.00;98968.05;3777525;77;43707;-18
2021/03/18 06:12:11;;;;;;;24.27;12.23;;;;;;;-0.51;100.00;98974.61;3762280;77;43510;-18
2021/03/18 06:17:19;;;;;;;24.40;13.13;;;;;;;-0.50;100.00;98963.54;3756016;78;44033;-18
2021/03/18 06:22:35;;;;;;;26.30;13.67;;;;;;;-0.38;100.00;98962.91;3758520;77;43677;-18
2021/03/18 06:27:41;;;;;;;21.70;12.47;;;;;;;-0.32;100.00;98974.98;3748130;77;43693;-18
2021/03/18 06:32:47;;;;;;;22.40;11.90;;;;;;;-0.34;100.00;98969.77;3669984;79;44382;-18
2021/03/18 06:37:54;;;;;;;19.60;11.67;;;;;;;-0.32;100.00;98963.94;3755205;77;44045;-18
2021/03/18 06:43:02;;;;;;;22.87;12.37;;;;;;;-0.34;100.00;98961.83;3771025;77;43150;-18
2021/03/18 06:48:11;;;;;;;22.50;11.87;;;;;;;-0.37;100.00;98969.92;3743826;77;43425;-18
2021/03/18 06:53:24;;;;;;;19.77;11.57;;;;;;;-0.34;100.00;98964.48;3671904;80;43368;-18
2021/03/18 06:58:30;;;;;;;23.93;12.40;;;;;;;-0.34;100.00;98978.17;3751917;77;44007;-18
2021/03/18 07:03:38;;;;;;;21.63;12.47;;;;;;;-0.29;100.00;98979.28;3761488;77;43322;-18
2021/03/18 07:08:45;;;;;;;25.03;12.97;;;;;;;-0.27;100.00;98972.09;3762665;77;43222;-17
2021/03/18 07:13:52;;;;;;;27.27;13.63;;;;;;;-0.16;100.00;98972.39;3748844;77;43416;-18
2021/03/18 07:18:59;;;;;;;25.67;13.03;;;;;;;0.02;100.00;98975.03;3749166;77;44394;-18
2021/03/18 07:24:13;;;;;;;19.77;10.93;;;;;;;0.21;100.00;98971.77;3742099;77;43048;-18
2021/03/18 07:29:22;;;;;;;27.13;15.23;;;;;;;0.39;100.00;98971.73;3772833;77;43701;-18
2021/03/18 07:34:29;;;;;;;28.07;15.00;;;;;;;0.40;100.00;98961.04;3684357;80;44611;-19
2021/03/18 07:39:37;;;;;;;25.63;15.20;;;;;;;0.55;100.00;98956.69;3766911;77;45279;-18
2021/03/18 07:44:45;;;;;;;28.50;15.13;;;;;;;0.69;100.00;98960.38;3747751;77;44056;-18
2021/03/18 07:49:55;;;;;;;27.03;14.63;;;;;;;0.77;100.00;98950.19;3678501;80;44039;-18
2021/03/18 07:55:01;;;;;;;19.77;12.37;;;;;;;0.87;100.00;98946.55;3750983;77;43198;-18
2021/03/18 08:00:12;;;;;;;24.23;12.70;;;;;;;0.94;100.00;98945.73;3759450;77;44089;-18
2021/03/18 08:05:38;;;;;;;21.93;12.60;;;;;;;1.01;100.00;98940.45;3752242;77;43691;-18
2021/03/18 08:10:43;;;;;;;23.13;12.73;;;;;;;0.96;100.00;98931.91;3761079;77;43374;-18
2021/03/18 08:15:49;;;;;;;25.20;14.10;;;;;;;0.86;100.00;98932.45;3775609;77;43454;-18
2021/03/18 08:21:04;;;;;;;22.70;12.67;;;;;;;1.03;100.00;98929.28;3801959;77;43393;-18
2021/03/18 08:26:14;;;;;;;20.83;11.07;;;;;;;1.19;100.00;98926.13;3714459;79;43329;-18
2021/03/18 08:31:23;;;;;;;21.53;11.37;;;;;;;1.41;100.00;98926.20;3750537;77;43451;-18
2021/03/18 08:36:34;;;;;;;18.87;11.73;;;;;;;1.50;100.00;98925.64;3790610;77;43440;-18
2021/03/18 08:41:42;;;;;;;19.73;11.77;;;;;;;1.73;100.00;98922.08;3778090;77;44197;-18
2021/03/18 08:46:54;;;;;;;17.33;10.63;;;;;;;1.81;100.00;98921.16;3768036;77;43478;-18
2021/03/18 08:52:03;;;;;;;19.53;11.00;;;;;;;2.05;100.00;98917.07;3774630;77;43250;-18
2021/03/18 08:57:11;;;;;;;16.93;9.77;;;;;;;2.21;100.00;98906.33;3777182;77;44007;-18
2021/03/18 09:02:20;;;;;;;16.03;10.50;;;;;;;2.40;100.00;98910.89;3777435;77;44031;-19
2021/03/18 09:07:28;;;;;;;16.57;9.90;;;;;;;2.59;100.00;98907.04;3706186;80;44043;-19
2021/03/18 09:12:42;;;;;;;15.17;9.60;;;;;;;2.75;100.00;98902.91;3709792;78;44767;-18
2021/03/18 09:17:50;;;;;;;13.50;9.23;;;;;;;2.89;100.00;98901.53;3671127;79;43492;-18
2021/03/18 09:23:09;;;;;;;15.57;9.37;;;;;;;3.08;100.00;98906.50;3773443;77;44071;-19
2021/03/18 09:28:16;;;;;;;14.60;9.27;;;;;;;3.29;100.00;98902.02;3779221;77;43713;-16
2021/03/18 09:33:25;;;;;;;14.40;8.97;;;;;;;3.31;100.00;98897.45;3768010;76;44180;-17
2021/03/18 09:38:33;;;;;;;12.23;8.43;;;;;;;3.39;100.00;98885.79;3747211;77;44030;-17
2021/03/18 09:43:40;;;;;;;12.57;8.63;;;;;;;3.65;100.00;98888.48;3753208;77;43372;-17
2021/03/18 09:48:46;;;;;;;10.60;7.63;;;;;;;3.89;100.00;98882.41;3768379;77;43629;-18
2021/03/18 09:54:02;;;;;;;11.07;7.30;;;;;;;4.07;100.00;98868.73;3752656;77;44035;-18
2021/03/18 09:59:10;;;;;;;6.80;5.40;;;;;;;3.82;100.00;98881.15;3746167;77;43395;-18
2021/03/18 10:04:19;;;;;;;7.83;4.80;;;;;;;3.71;100.00;98871.22;3736308;77;43166;-18
2021/03/18 10:09:27;;;;;;;8.13;5.23;;;;;;;3.91;100.00;98872.50;3752144;77;43402;-18
2021/03/18 10:14:36;;;;;;;9.37;6.07;;;;;;;3.77;100.00;98862.78;3679543;79;43745;-18
2021/03/18 10:19:46;;;;;;;9.20;5.80;;;;;;;4.00;100.00;98862.52;3756493;77;44407;-18
2021/03/18 10:25:09;;;;;;;8.47;5.17;;;;;;;3.95;100.00;98864.64;3757132;77;42948;-18
2021/03/18 10:30:19;;;;;;;8.67;5.33;;;;;;;4.14;100.00;98856.69;3750477;77;44057;-17
2021/03/18 10:35:25;;;;;;;8.13;4.90;;;;;;;4.33;100.00;98857.55;3741793;77;43440;-17
2021/03/18 10:40:34;;;;;;;10.67;7.13;;;;;;;4.65;100.00;98850.80;3725152;79;43293;-18
2021/03/18 10:45:41;;;;;;;12.43;8.10;;;;;;;4.83;100.00;98844.13;3736366;77;43385;-17
2021/03/18 10:50:48;;;;;;;14.63;9.80;;;;;;;4.00;100.00;98838.98;3748503;78;43652;-18
2021/03/18 10:55:56;;;;;;;15.63;9.83;;;;;;;3.53;100.00;98845.38;3744964;78;43293;-17
2021/03/18 11:01:04;;;;;;;16.00;9.90;;;;;;;3.34;100.00;98851.98;3762559;78;44027;-17
2021/03/18 11:06:18;;;;;;;13.53;8.83;;;;;;;3.11;100.00;98854.02;3733988;77;43990;-17
2021/03/18 11:11:27;;;;;;;10.60;7.10;;;;;;;2.98;100.00;98849.52;3730034;78;43046;-17
2021/03/18 11:16:33;;;;;;;9.03;6.00;;;;;;;3.07;100.00;98840.90;3732034;79;43726;-18
2021/03/18 11:21:42;;;;;;;9.90;5.83;;;;;;;3.12;100.00;98834.42;3767732;77;43368;-18
2021/03/18 11:26:56;;;;;;;9.30;5.20;;;;;;;3.22;100.00;98827.02;3758018;78;43673;-17
2021/03/18 11:32:05;;;;;;;7.60;5.33;;;;;;;3.31;100.00;98825.55;3758826;77;43797;-16
2021/03/18 11:37:12;;;;;;;8.17;5.20;;;;;;;3.47;100.00;98811.19;3747768;77;43313;-17
2021/03/18 11:42:18;;;;;;;7.00;4.70;;;;;;;3.63;100.00;98804.30;3752898;77;43196;-17
2021/03/18 11:47:24;;;;;;;6.43;4.60;;;;;;;3.87;100.00;98803.03;3760036;77;43348;-16
2021/03/18 11:52:33;;;;;;;6.67;4.60;;;;;;;3.87;100.00;98799.03;3756064;77;43301;-17
2021/03/18 11:57:38;;;;;;;7.80;5.07;;;;;;;4.05;100.00;98789.36;3750512;77;43341;-18
2021/03/18 12:02:44;;;;;;;6.30;4.00;;;;;;;4.15;100.00;98774.39;3746934;77;44043;-17
2021/03/18 12:07:52;;;;;;;7.33;4.50;;;;;;;4.23;100.00;98764.01;3752822;77;44084;-16
2021/03/18 12:12:58;;;;;;;6.03;4.07;;;;;;;4.34;100.00;98756.56;3685462;79;44075;-16
2021/03/18 12:18:04;;;;;;;6.13;3.97;;;;;;;4.24;100.00;98743.51;3732787;77;43730;-15
2021/03/18 12:23:11;;;;;;;5.17;4.10;;;;;;;4.28;100.00;98732.53;3746122;77;44007;-17
2021/03/18 12:28:16;;;;;;;6.60;4.50;;;;;;;4.53;100.00;98721.83;3749906;77;43720;-22
2021/03/18 12:33:22;;;;;;;6.03;4.37;;;;;;;4.86;100.00;98711.75;3749289;77;43676;-17
2021/03/18 12:38:28;;;;;;;5.73;4.47;;;;;;;5.43;100.00;98702.46;3744871;77;44017;-16
2021/03/18 12:43:35;;;;;;;6.60;4.53;;;;;;;5.60;100.00;98698.44;3687973;80;44053;-17
2021/03/18 12:48:42;;;;;;;7.30;4.80;;;;;;;6.15;100.00;98698.50;3749993;77;42732;-17
2021/03/18 12:53:48;;;;;;;8.20;5.40;;;;;;;6.07;99.66;98688.06;3763240;77;44019;-17
2021/03/18 12:58:55;;;;;;;6.90;4.77;;;;;;;6.61;98.01;98686.27;3683227;80;44062;-17
2021/03/18 13:04:01;;;;;;;6.57;4.50;;;;;;;6.50;100.00;98669.76;3752487;77;43108;-17
2021/03/18 13:09:08;;;;;;;6.50;4.20;;;;;;;6.75;96.30;98659.17;3758522;77;43686;-20
2021/03/18 13:14:16;;;;;;;4.83;3.70;;;;;;;6.90;97.03;98640.07;3768517;77;43368;-18
2021/03/18 13:19:22;;;;;;;4.20;3.40;;;;;;;7.27;90.00;98639.55;3760634;77;64779;-17
2021/03/18 13:24:28;;;;;;;4.25;3.52;;;;;;;7.33;94.58;98636.34;3748176;77;43791;-17
2021/03/18 13:29:34;;;;;;;4.47;3.43;;;;;;;6.93;88.64;98623.74;3750050;79;64976;-17
2021/03/18 13:34:41;;;;;;;4.37;3.53;;;;;;;6.82;90.70;98617.12;3764912;77;42721;-17
2021/03/18 13:39:46;;;;;;;4.33;3.80;;;;;;;6.34;96.56;98623.38;3757552;77;44673;-18
2021/03/18 13:44:53;;;;;;;4.60;3.77;;;;;;;5.74;94.36;98633.66;3753862;77;44010;-17
2021/03/18 13:49:58;;;;;;;5.47;4.10;;;;;;;5.64;97.74;98618.85;3763624;77;44096;-16
2021/03/18 13:55:06;;;;;;;5.50;3.37;;;;;;;5.29;95.19;98604.72;3755983;77;44808;-16
2021/03/18 14:00:14;;;;;;;4.47;3.50;;;;;;;5.07;98.45;98612.25;3738280;77;44058;-18
2021/03/18 14:05:21;;;;;;;5.93;4.30;;;;;;;4.94;98.44;98615.02;3763414;77;43937;-16
2021/03/18 14:10:27;;;;;;;6.00;4.30;;;;;;;3.95;100.00;98638.05;3780083;77;44078;-17
2021/03/18 14:15:33;;;;;;;6.90;4.60;;;;;;;2.71;100.00;98630.02;3736823;77;44006;-17
2021/03/18 14:20:41;;;;;;;7.30;4.77;;;;;;;2.36;100.00;98635.48;3683386;79;43921;-18
2021/03/18 14:25:48;;;;;;;7.60;4.33;;;;;;;2.13;100.00;98635.23;3747999;77;43675;-19
2021/03/18 14:30:54;;;;;;;6.87;4.60;;;;;;;1.77;100.00;98632.73;3683646;79;43091;-18
2021/03/18 14:36:01;;;;;;;7.43;4.80;;;;;;;1.82;100.00;98626.61;3663424;79;43369;-18
2021/03/18 14:41:06;;;;;;;9.10;4.00;;;;;;;1.76;100.00;98608.44;3733223;79;43385;-17
2021/03/18 14:46:12;;;;;;;7.17;4.47;;;;;;;1.69;100.00;98597.37;3777754;77;44058;-17
2021/03/18 14:51:19;;;;;;;6.93;4.07;;;;;;;1.77;100.00;98577.41;3763114;77;43975;-19
2021/03/18 14:56:28;;;;;;;8.93;5.07;;;;;;;2.39;100.00;98567.48;3756315;77;43041;-18
2021/03/18 15:01:36;;;;;;;8.13;5.13;;;;;;;3.01;100.00;98565.81;3747601;77;44554;-18
2021/03/18 15:06:43;;;;;;;9.70;5.83;;;;;;;3.70;100.00;98555.92;3762018;77;43722;-19
2021/03/18 15:11:50;;;;;;;8.53;4.83;;;;;;;4.06;100.00;98553.78;3753660;77;44181;-18
2021/03/18 15:16:55;;;;;;;7.57;4.73;;;;;;;4.20;100.00;98556.71;3752833;77;44135;-18
2021/03/18 15:22:01;;;;;;;8.97;5.43;;;;;;;3.86;100.00;98553.45;3755634;77;43684;-19
2021/03/18 15:27:07;;;;;;;9.03;6.20;;;;;;;3.61;100.00;98551.78;3759835;77;43397;-18
2021/03/18 15:32:13;;;;;;;9.47;6.07;;;;;;;3.36;100.00;98557.58;3755985;77;44501;-18
2021/03/18 15:37:19;;;;;;;8.17;5.57;;;;;;;3.31;100.00;98560.58;3754957;79;44074;-19
2021/03/18 15:42:26;;;;;;;10.57;7.10;;;;;;;3.38;100.00;98547.67;3735464;78;43331;-21
2021/03/18 15:47:33;;;;;;;8.43;5.87;;;;;;;3.41;100.00;98540.77;3738972;78;43911;-19
2021/03/18 15:52:40;;;;;;;9.30;6.37;;;;;;;3.84;100.00;98538.05;3741546;79;43459;-19
2021/03/18 15:57:47;;;;;;;9.43;6.37;;;;;;;4.44;100.00;98522.81;3743315;78;44389;-18
2021/03/18 16:02:53;;;;;;;8.30;5.43;;;;;;;4.87;100.00;98518.58;3736827;79;44054;-18
2021/03/18 16:08:02;;;;;;;7.77;5.47;;;;;;;4.71;100.00;98512.74;3736056;78;43699;-20
2021/03/18 16:13:09;;;;;;;6.70;5.27;;;;;;;4.24;100.00;98511.02;3736887;78;43996;-18
2021/03/18 16:18:16;;;;;;;7.50;5.00;;;;;;;4.23;100.00;98498.65;3741007;78;43523;-18
2021/03/18 16:23:22;;;;;;;8.63;5.33;;;;;;;4.15;100.00;98491.73;3738010;78;43726;-18
2021/03/18 16:28:29;;;;;;;8.47;5.90;;;;;;;4.01;100.00;98492.31;3742426;79;43276;-18
2021/03/18 16:33:36;;;;;;;7.17;5.27;;;;;;;3.95;100.00;98482.11;3741238;77;44186;-18
2021/03/18 16:38:44;;;;;;;8.43;6.03;;;;;;;3.98;100.00;98488.55;3747749;77;44107;-17
2021/03/18 16:43:50;;;;;;;8.57;5.30;;;;;;;3.88;100.00;98488.05;3742415;77;43677;-19
2021/03/18 16:48:59;;;;;;;10.50;6.07;;;;;;;3.65;100.00;98483.95;3679626;79;43995;-18
2021/03/18 16:54:07;;;;;;;9.90;6.70;;;;;;;3.60;100.00;98482.14;3751410;77;43353;-18
2021/03/18 16:59:14;;;;;;;10.10;6.87;;;;;;;3.49;100.00;98478.94;3758315;77;44046;-18
2021/03/18 17:04:19;;;;;;;10.87;7.53;;;;;;;3.50;100.00;98471.31;3752465;77;43333;-18
2021/03/18 17:09:26;;;;;;;10.27;6.30;;;;;;;3.39;100.00;98461.48;3687947;79;44097;-18
2021/03/18 17:14:32;;;;;;;12.30;7.00;;;;;;;3.39;100.00;98463.66;3761478;76;44027;-18
2021/03/18 17:19:40;;;;;;;10.67;6.97;;;;;;;3.30;100.00;98463.48;3750407;77;44011;-18
2021/03/18 17:24:46;;;;;;;10.83;7.10;;;;;;;3.25;100.00;98466.48;3757249;77;44002;-19
2021/03/18 17:29:52;;;;;;;10.87;7.37;;;;;;;2.83;100.00;98459.38;3770061;77;44073;-19
2021/03/18 17:34:58;;;;;;;13.87;8.50;;;;;;;2.77;100.00;98456.67;3748146;77;44055;-19
2021/03/18 17:40:07;;;;;;;13.30;8.17;;;;;;;2.56;100.00;98457.73;3747542;77;43415;-19
2021/03/18 17:45:15;;;;;;;12.87;8.10;;;;;;;2.41;100.00;98459.18;3758634;79;43997;-18
2021/03/18 17:50:22;;;;;;;11.43;7.70;;;;;;;2.24;100.00;98464.86;3735052;78;43408;-19
2021/03/18 17:55:28;;;;;;;11.83;7.37;;;;;;;2.09;100.00;98466.29;3730658;78;43346;-19
2021/03/18 18:00:34;;;;;;;10.37;7.47;;;;;;;1.98;100.00;98455.09;3729234;79;43194;-18
2021/03/18 18:05:40;;;;;;;13.57;8.53;;;;;;;1.92;100.00;98459.98;3728286;78;43336;-19
2021/03/18 18:10:47;;;;;;;13.60;7.57;;;;;;;1.87;100.00;98460.76;3735706;79;44050;-19
2021/03/18 18:15:52;;;;;;;12.97;7.77;;;;;;;1.83;100.00;98457.47;3740696;78;43692;-19
2021/03/18 18:20:59;;;;;;;10.10;6.80;;;;;;;1.82;100.00;98459.25;3734567;78;44011;-19
2021/03/18 18:26:05;;;;;;;11.97;6.90;;;;;;;1.74;100.00;98456.28;3740560;78;43707;-19
2021/03/18 18:31:12;;;;;;;10.30;6.93;;;;;;;1.70;100.00;98449.50;3738556;78;43363;-18
2021/03/18 18:36:20;;;;;;;13.00;8.33;;;;;;;1.64;100.00;98443.27;3743140;77;43374;-18
2021/03/18 18:41:27;;;;;;;11.80;8.23;;;;;;;1.62;100.00;98443.83;3756435;77;43313;-18
2021/03/18 18:46:33;;;;;;;16.70;9.83;;;;;;;1.54;100.00;98434.59;3752693;77;44103;-19
2021/03/18 18:51:40;;;;;;;15.23;8.67;;;;;;;1.54;100.00;98441.69;3757763;77;44431;-19
2021/03/18 18:56:46;;;;;;;14.13;9.30;;;;;;;1.46;100.00;98434.27;3766313;77;43461;-18
2021/03/18 19:01:53;;;;;;;15.53;9.50;;;;;;;1.46;100.00;98435.60;3753683;77;43716;-18
2021/03/18 19:07:00;;;;;;;16.10;9.80;;;;;;;1.44;100.00;98434.84;3747929;77;43388;-18
2021/03/18 19:12:08;;;;;;;16.10;9.77;;;;;;;1.38;100.00;98433.91;3747944;77;44432;-19
2021/03/18 19:17:14;;;;;;;16.67;9.53;;;;;;;1.30;100.00;98434.42;3682117;79;43162;-19
2021/03/18 19:22:20;;;;;;;19.63;11.50;;;;;;;1.35;100.00;98446.09;3753854;77;43681;-19
2021/03/18 19:27:27;;;;;;;20.60;11.70;;;;;;;1.31;100.00;98444.58;3767454;77;43726;-18
2021/03/18 19:32:33;;;;;;;20.87;11.87;;;;;;;1.30;100.00;98441.55;3785374;77;43768;-19
2021/03/18 19:37:42;;;;;;;18.63;11.37;;;;;;;1.26;100.00;98438.72;3787381;77;43357;-18
2021/03/18 19:42:49;;;;;;;20.77;10.90;;;;;;;1.27;100.00;98442.61;3764124;78;44094;-19
2021/03/18 19:47:55;;;;;;;20.57;11.80;;;;;;;1.28;100.00;98441.66;3755559;77;43673;-19
2021/03/18 19:53:01;;;;;;;18.90;11.30;;;;;;;1.29;100.00;98433.21;3769694;76;43479;-19
2021/03/18 19:58:08;;;;;;;19.23;10.80;;;;;;;1.26;100.00;98432.08;3773380;78;44038;-19
2021/03/18 20:03:15;;;;;;;16.57;10.30;;;;;;;1.19;100.00;98430.31;3750617;78;43677;-19
2021/03/18 20:08:22;;;;;;;18.13;10.60;;;;;;;1.18;100.00;98430.80;3743528;78;43068;-19
2021/03/18 20:13:29;;;;;;;19.77;10.87;;;;;;;1.17;100.00;98434.40;3748986;78;43421;-31
2021/03/18 20:18:35;;;;;;;20.40;11.00;;;;;;;1.16;100.00;98438.50;3760023;77;43702;-17
2021/03/18 20:23:42;;;;;;;16.67;9.90;;;;;;;1.13;100.00;98443.51;3758050;77;43730;-17
2021/03/18 20:28:48;;;;;;;16.57;9.93;;;;;;;1.10;100.00;98438.42;3763236;77;43387;-17
2021/03/18 20:33:55;;;;;;;14.07;8.67;;;;;;;0.97;100.00;98438.85;3764446;78;43689;-18
2021/03/18 20:39:02;;;;;;;16.63;9.20;;;;;;;0.92;100.00;98428.55;3776232;77;44507;-18
2021/03/18 20:44:10;;;;;;;14.40;8.17;;;;;;;0.92;100.00;98434.69;3759890;77;44009;-18
2021/03/18 20:49:17;;;;;;;11.90;7.10;;;;;;;0.88;100.00;98426.54;3751774;77;43949;-18
2021/03/18 20:54:24;;;;;;;13.43;7.77;;;;;;;0.76;100.00;98422.06;3760343;77;43996;-18
2021/03/18 20:59:30;;;;;;;12.77;6.87;;;;;;;0.73;100.00;98416.95;3755472;77;43676;-18
2021/03/18 21:04:36;;;;;;;15.07;7.87;;;;;;;0.71;100.00;98418.84;3756938;77;44089;-18
2021/03/18 21:09:42;;;;;;;15.57;8.00;;;;;;;0.70;100.00;98414.03;3752021;77;44546;-18
2021/03/18 21:14:48;;;;;;;15.53;8.80;;;;;;;0.64;100.00;98410.92;3767150;77;44448;-18
2021/03/18 21:19:54;;;;;;;17.63;9.17;;;;;;;0.63;100.00;98406.56;3745199;77;43944;-18
2021/03/18 21:25:00;;;;;;;16.60;9.20;;;;;;;0.58;100.00;98413.49;3729148;77;43413;-18
2021/03/18 21:30:10;;;;;;;17.87;9.53;;;;;;;0.56;100.00;98412.73;3745464;77;44176;-18
2021/03/18 21:35:17;;;;;;;17.30;9.90;;;;;;;0.57;100.00;98411.30;3677535;79;43062;-19
2021/03/18 21:40:23;;;;;;;18.13;9.83;;;;;;;0.55;100.00;98406.56;3795416;77;44106;-19
2021/03/18 21:45:29;;;;;;;18.77;10.77;;;;;;;0.54;100.00;98403.53;3786831;77;43414;-18
2021/03/18 21:50:41;;;;;;;18.33;9.40;;;;;;;0.52;100.00;98404.13;3725504;78;43704;-18
2021/03/18 21:55:44;;;;;;;19.03;9.40;;;;;;;0.51;100.00;98406.41;3730205;78;44111;-18
2021/03/18 22:00:53;;;;;;;17.30;9.47;;;;;;;0.54;100.00;98404.86;3665261;80;43718;-18
2021/03/18 22:05:59;;;;;;;19.47;9.57;;;;;;;0.49;100.00;98403.45;3659648;79;44058;-18
2021/03/18 22:11:05;;;;;;;18.70;9.80;;;;;;;0.39;100.00;98398.75;3724269;78;44106;-18
2021/03/18 22:16:12;;;;;;;16.40;9.10;;;;;;;0.42;100.00;98381.78;3729545;78;43278;-18
2021/03/18 22:21:19;;;;;;;20.70;9.77;;;;;;;0.38;100.00;98384.28;3723185;78;44071;-18
2021/03/18 22:26:26;;;;;;;19.30;9.50;;;;;;;0.22;100.00;98383.92;3668482;80;43310;-18
2021/03/18 22:31:32;;;;;;;16.27;9.30;;;;;;;0.32;100.00;98382.00;3699013;79;43311;-19
2021/03/18 22:36:39;;;;;;;21.50;10.23;;;;;;;0.27;100.00;98368.59;3711385;79;43911;-18
2021/03/18 22:41:44;;;;;;;18.43;9.73;;;;;;;0.20;100.00;98375.70;3779885;76;43193;-18
2021/03/18 22:46:50;;;;;;;19.93;10.10;;;;;;;0.24;100.00;98374.08;3780991;76;44493;-18
2021/03/18 22:51:57;;;;;;;17.73;9.70;;;;;;;0.13;100.00;98369.94;3746675;77;72660;-18
2021/03/18 22:57:03;;;;;;;19.33;9.90;;;;;;;0.06;100.00;98376.58;3656889;80;44060;-18
2021/03/18 23:02:09;;;;;;;18.37;9.57;;;;;;;0.03;100.00;98376.76;3744609;78;44039;-18
2021/03/18 23:07:15;;;;;;;22.40;11.53;;;;;;;0.07;100.00;98375.59;3658825;79;44074;-18
2021/03/18 23:12:20;;;;;;;21.90;11.53;;;;;;;0.01;100.00;98373.34;3748354;78;43981;-18
2021/03/18 23:17:28;;;;;;;21.53;11.07;;;;;;;0.03;100.00;98376.27;3754203;78;44514;-18
2021/03/18 23:22:37;;;;;;;21.67;10.97;;;;;;;-0.01;100.00;98382.73;3738684;78;44062;-18
2021/03/18 23:27:44;;;;;;;25.47;12.03;;;;;;;-0.04;100.00;98382.42;3698478;78;44090;-19
2021/03/18 23:32:50;;;;;;;23.50;11.63;;;;;;;-0.01;100.00;98384.88;3706288;78;43443;-18
2021/03/18 23:37:57;;;;;;;24.13;11.70;;;;;;;0.04;100.00;98390.38;3745960;78;43668;-18
2021/03/18 23:43:03;;;;;;;22.93;11.03;;;;;;;0.07;100.00;98395.47;3645297;80;44688;-18
2021/03/18 23:48:10;;;;;;;22.30;11.03;;;;;;;0.11;100.00;98383.73;3746904;78;43334;-18